sensor_id;sensor_type;location;lat;lon;timestamp;P1;durP1;ratioP1;P2;durP2;ratioP2
77733;SDS011;66902;41.720;44.796;2024-01-11T00:01:47;1.20;;;0.20;;
77733;SDS011;66902;41.720;44.796;2024-01-11T00:04:21;1.40;;;0.40;;
77733;SDS011;66902;41.720;44.796;2024-01-11T00:06:56;1.60;;;0.30;;
77733;SDS011;66902;41.720;44.796;2024-01-11T00:09:29;1.30;;;0.30;;
77733;SDS011;66902;41.720;44.796;2024-01-11T00:12:03;0.70;;;0.30;;
77733;SDS011;66902;41.720;44.796;2024-01-11T00:14:36;1.10;;;0.30;;
77733;SDS011;66902;41.720;44.796;2024-01-11T00:17:10;0.60;;;0.40;;
77733;SDS011;66902;41.720;44.796;2024-01-11T00:19:45;0.50;;;0.30;;
77733;SDS011;66902;41.720;44.796;2024-01-11T00:22:20;0.70;;;0.40;;
77733;SDS011;66902;41.720;44.796;2024-01-11T00:24:53;0.50;;;0.10;;
77733;SDS011;66902;41.720;44.796;2024-01-11T00:27:27;0.60;;;0.20;;
77733;SDS011;66902;41.720;44.796;2024-01-11T00:30:00;0.40;;;0.30;;
77733;SDS011;66902;41.720;44.796;2024-01-11T00:32:34;1.50;;;0.30;;
77733;SDS011;66902;41.720;44.796;2024-01-11T00:35:08;1.10;;;0.20;;
77733;SDS011;66902;41.720;44.796;2024-01-11T00:37:41;1.40;;;0.30;;
77733;SDS011;66902;41.720;44.796;2024-01-11T00:40:15;2.10;;;0.30;;
77733;SDS011;66902;41.720;44.796;2024-01-11T00:42:48;0.90;;;0.20;;
77733;SDS011;66902;41.720;44.796;2024-01-11T00:45:22;0.90;;;0.20;;
77733;SDS011;66902;41.720;44.796;2024-01-11T00:47:55;0.20;;;0.10;;
77733;SDS011;66902;41.720;44.796;2024-01-11T00:50:28;0.20;;;0.20;;
77733;SDS011;66902;41.720;44.796;2024-01-11T00:53:02;2.70;;;0.20;;
77733;SDS011;66902;41.720;44.796;2024-01-11T00:55:36;0.60;;;0.20;;
77733;SDS011;66902;41.720;44.796;2024-01-11T00:58:09;0.60;;;0.40;;
77733;SDS011;66902;41.720;44.796;2024-01-11T01:00:43;1.00;;;0.30;;
77733;SDS011;66902;41.720;44.796;2024-01-11T01:03:16;0.70;;;0.30;;
77733;SDS011;66902;41.720;44.796;2024-01-11T01:05:50;1.00;;;0.20;;
77733;SDS011;66902;41.720;44.796;2024-01-11T01:08:24;0.80;;;0.30;;
77733;SDS011;66902;41.720;44.796;2024-01-11T01:10:57;0.50;;;0.20;;
77733;SDS011;66902;41.720;44.796;2024-01-11T01:13:31;4.20;;;0.40;;
77733;SDS011;66902;41.720;44.796;2024-01-11T01:16:05;0.80;;;0.30;;
77733;SDS011;66902;41.720;44.796;2024-01-11T01:18:38;0.80;;;0.30;;
77733;SDS011;66902;41.720;44.796;2024-01-11T01:21:12;1.00;;;0.30;;
77733;SDS011;66902;41.720;44.796;2024-01-11T01:23:45;1.40;;;0.40;;
77733;SDS011;66902;41.720;44.796;2024-01-11T01:26:19;1.10;;;0.30;;
77733;SDS011;66902;41.720;44.796;2024-01-11T01:28:52;0.70;;;0.40;;
77733;SDS011;66902;41.720;44.796;2024-01-11T01:31:25;1.20;;;0.20;;
77733;SDS011;66902;41.720;44.796;2024-01-11T01:33:59;2.20;;;0.50;;
77733;SDS011;66902;41.720;44.796;2024-01-11T01:36:33;1.00;;;0.20;;
77733;SDS011;66902;41.720;44.796;2024-01-11T01:39:06;4.50;;;0.50;;
77733;SDS011;66902;41.720;44.796;2024-01-11T01:41:39;0.30;;;0.20;;
77733;SDS011;66902;41.720;44.796;2024-01-11T01:44:13;0.70;;;0.40;;
77733;SDS011;66902;41.720;44.796;2024-01-11T01:46:46;0.70;;;0.50;;
77733;SDS011;66902;41.720;44.796;2024-01-11T01:49:20;0.60;;;0.30;;
77733;SDS011;66902;41.720;44.796;2024-01-11T01:51:53;0.90;;;0.30;;
77733;SDS011;66902;41.720;44.796;2024-01-11T01:54:28;2.10;;;0.30;;
77733;SDS011;66902;41.720;44.796;2024-01-11T01:57:01;0.70;;;0.40;;
77733;SDS011;66902;41.720;44.796;2024-01-11T01:59:36;0.50;;;0.30;;
77733;SDS011;66902;41.720;44.796;2024-01-11T02:02:09;2.40;;;0.50;;
77733;SDS011;66902;41.720;44.796;2024-01-11T02:04:43;0.90;;;0.40;;
77733;SDS011;66902;41.720;44.796;2024-01-11T02:07:17;0.90;;;0.40;;
77733;SDS011;66902;41.720;44.796;2024-01-11T02:09:51;4.00;;;0.50;;
77733;SDS011;66902;41.720;44.796;2024-01-11T02:12:25;1.90;;;0.40;;
77733;SDS011;66902;41.720;44.796;2024-01-11T02:14:59;0.60;;;0.30;;
77733;SDS011;66902;41.720;44.796;2024-01-11T02:17:33;0.50;;;0.40;;
77733;SDS011;66902;41.720;44.796;2024-01-11T02:20:08;1.40;;;0.50;;
77733;SDS011;66902;41.720;44.796;2024-01-11T02:22:43;0.90;;;0.40;;
77733;SDS011;66902;41.720;44.796;2024-01-11T02:25:21;1.90;;;0.40;;
77733;SDS011;66902;41.720;44.796;2024-01-11T02:27:55;1.10;;;0.40;;
77733;SDS011;66902;41.720;44.796;2024-01-11T02:30:28;2.90;;;0.80;;
77733;SDS011;66902;41.720;44.796;2024-01-11T02:33:02;0.60;;;0.50;;
77733;SDS011;66902;41.720;44.796;2024-01-11T02:35:37;1.00;;;0.40;;
77733;SDS011;66902;41.720;44.796;2024-01-11T02:38:16;0.60;;;0.20;;
77733;SDS011;66902;41.720;44.796;2024-01-11T02:40:50;0.50;;;0.40;;
77733;SDS011;66902;41.720;44.796;2024-01-11T02:43:23;0.60;;;0.30;;
77733;SDS011;66902;41.720;44.796;2024-01-11T02:45:57;1.90;;;0.20;;
77733;SDS011;66902;41.720;44.796;2024-01-11T02:48:30;0.70;;;0.40;;
77733;SDS011;66902;41.720;44.796;2024-01-11T02:51:04;0.50;;;0.40;;
77733;SDS011;66902;41.720;44.796;2024-01-11T02:53:38;0.20;;;0.10;;
77733;SDS011;66902;41.720;44.796;2024-01-11T02:56:11;0.30;;;0.20;;
77733;SDS011;66902;41.720;44.796;2024-01-11T02:58:45;1.00;;;0.40;;
77733;SDS011;66902;41.720;44.796;2024-01-11T03:01:18;0.50;;;0.30;;
77733;SDS011;66902;41.720;44.796;2024-01-11T03:03:52;1.00;;;0.40;;
77733;SDS011;66902;41.720;44.796;2024-01-11T03:06:25;1.50;;;0.40;;
77733;SDS011;66902;41.720;44.796;2024-01-11T03:08:59;0.30;;;0.30;;
77733;SDS011;66902;41.720;44.796;2024-01-11T03:11:32;2.70;;;0.60;;
77733;SDS011;66902;41.720;44.796;2024-01-11T03:14:07;0.30;;;0.20;;
77733;SDS011;66902;41.720;44.796;2024-01-11T03:16:41;1.10;;;0.20;;
77733;SDS011;66902;41.720;44.796;2024-01-11T03:19:14;0.50;;;0.20;;
77733;SDS011;66902;41.720;44.796;2024-01-11T03:21:48;1.00;;;0.40;;
77733;SDS011;66902;41.720;44.796;2024-01-11T03:24:21;0.30;;;0.20;;
77733;SDS011;66902;41.720;44.796;2024-01-11T03:26:55;4.40;;;0.60;;
77733;SDS011;66902;41.720;44.796;2024-01-11T03:29:28;1.50;;;0.20;;
77733;SDS011;66902;41.720;44.796;2024-01-11T03:32:02;0.40;;;0.20;;
77733;SDS011;66902;41.720;44.796;2024-01-11T03:34:36;0.60;;;0.20;;
77733;SDS011;66902;41.720;44.796;2024-01-11T03:37:10;2.30;;;0.50;;
77733;SDS011;66902;41.720;44.796;2024-01-11T03:39:43;0.60;;;0.40;;
77733;SDS011;66902;41.720;44.796;2024-01-11T03:42:16;1.50;;;1.00;;
77733;SDS011;66902;41.720;44.796;2024-01-11T03:44:50;1.80;;;0.90;;
77733;SDS011;66902;41.720;44.796;2024-01-11T03:47:24;1.50;;;1.00;;
77733;SDS011;66902;41.720;44.796;2024-01-11T03:49:57;1.00;;;0.50;;
77733;SDS011;66902;41.720;44.796;2024-01-11T03:52:31;1.60;;;0.80;;
77733;SDS011;66902;41.720;44.796;2024-01-11T03:55:05;1.60;;;0.70;;
77733;SDS011;66902;41.720;44.796;2024-01-11T03:57:39;2.00;;;0.40;;
77733;SDS011;66902;41.720;44.796;2024-01-11T04:00:14;1.50;;;0.50;;
77733;SDS011;66902;41.720;44.796;2024-01-11T04:02:48;2.50;;;0.50;;
77733;SDS011;66902;41.720;44.796;2024-01-11T04:05:22;1.00;;;0.40;;
77733;SDS011;66902;41.720;44.796;2024-01-11T04:07:55;6.50;;;0.50;;
77733;SDS011;66902;41.720;44.796;2024-01-11T04:10:29;0.70;;;0.40;;
77733;SDS011;66902;41.720;44.796;2024-01-11T04:13:02;1.20;;;0.30;;
77733;SDS011;66902;41.720;44.796;2024-01-11T04:15:37;0.60;;;0.30;;
77733;SDS011;66902;41.720;44.796;2024-01-11T04:18:11;1.00;;;0.20;;
77733;SDS011;66902;41.720;44.796;2024-01-11T04:20:45;0.60;;;0.20;;
77733;SDS011;66902;41.720;44.796;2024-01-11T04:23:19;0.50;;;0.20;;
77733;SDS011;66902;41.720;44.796;2024-01-11T04:25:52;0.50;;;0.30;;
77733;SDS011;66902;41.720;44.796;2024-01-11T04:28:26;2.30;;;0.40;;
77733;SDS011;66902;41.720;44.796;2024-01-11T04:31:00;0.70;;;0.30;;
77733;SDS011;66902;41.720;44.796;2024-01-11T04:33:33;3.90;;;0.60;;
77733;SDS011;66902;41.720;44.796;2024-01-11T04:36:07;1.40;;;0.60;;
77733;SDS011;66902;41.720;44.796;2024-01-11T04:38:41;1.20;;;0.80;;
77733;SDS011;66902;41.720;44.796;2024-01-11T04:41:14;2.20;;;0.80;;
77733;SDS011;66902;41.720;44.796;2024-01-11T04:43:49;1.40;;;0.50;;
77733;SDS011;66902;41.720;44.796;2024-01-11T04:46:22;1.70;;;0.70;;
77733;SDS011;66902;41.720;44.796;2024-01-11T04:48:56;5.10;;;1.00;;
77733;SDS011;66902;41.720;44.796;2024-01-11T04:51:30;2.90;;;0.80;;
77733;SDS011;66902;41.720;44.796;2024-01-11T04:54:03;1.70;;;1.00;;
77733;SDS011;66902;41.720;44.796;2024-01-11T04:56:37;4.50;;;1.10;;
77733;SDS011;66902;41.720;44.796;2024-01-11T04:59:11;3.70;;;0.70;;
77733;SDS011;66902;41.720;44.796;2024-01-11T05:01:46;2.10;;;0.90;;
77733;SDS011;66902;41.720;44.796;2024-01-11T05:04:20;2.10;;;1.20;;
77733;SDS011;66902;41.720;44.796;2024-01-11T05:06:53;6.80;;;1.30;;
77733;SDS011;66902;41.720;44.796;2024-01-11T05:09:27;2.80;;;1.10;;
77733;SDS011;66902;41.720;44.796;2024-01-11T05:12:01;1.00;;;0.40;;
77733;SDS011;66902;41.720;44.796;2024-01-11T05:14:35;1.10;;;0.50;;
77733;SDS011;66902;41.720;44.796;2024-01-11T05:17:09;1.30;;;0.50;;
77733;SDS011;66902;41.720;44.796;2024-01-11T05:19:42;2.60;;;1.10;;
77733;SDS011;66902;41.720;44.796;2024-01-11T05:22:16;3.60;;;1.20;;
77733;SDS011;66902;41.720;44.796;2024-01-11T05:24:50;9.50;;;1.70;;
77733;SDS011;66902;41.720;44.796;2024-01-11T05:27:23;3.40;;;0.90;;
77733;SDS011;66902;41.720;44.796;2024-01-11T05:29:56;4.60;;;1.40;;
77733;SDS011;66902;41.720;44.796;2024-01-11T05:32:30;2.70;;;1.40;;
77733;SDS011;66902;41.720;44.796;2024-01-11T05:35:04;2.00;;;1.00;;
77733;SDS011;66902;41.720;44.796;2024-01-11T05:37:38;2.20;;;1.00;;
77733;SDS011;66902;41.720;44.796;2024-01-11T05:40:12;3.30;;;1.40;;
77733;SDS011;66902;41.720;44.796;2024-01-11T05:42:45;4.30;;;1.50;;
77733;SDS011;66902;41.720;44.796;2024-01-11T05:45:19;2.50;;;1.20;;
77733;SDS011;66902;41.720;44.796;2024-01-11T05:48:04;3.30;;;1.00;;
77733;SDS011;66902;41.720;44.796;2024-01-11T05:50:38;3.10;;;1.40;;
77733;SDS011;66902;41.720;44.796;2024-01-11T05:53:12;1.50;;;0.80;;
77733;SDS011;66902;41.720;44.796;2024-01-11T05:55:47;7.20;;;1.00;;
77733;SDS011;66902;41.720;44.796;2024-01-11T05:58:24;3.50;;;1.40;;
77733;SDS011;66902;41.720;44.796;2024-01-11T06:00:57;3.20;;;1.00;;
77733;SDS011;66902;41.720;44.796;2024-01-11T06:03:31;2.60;;;1.10;;
77733;SDS011;66902;41.720;44.796;2024-01-11T06:06:05;4.60;;;1.40;;
77733;SDS011;66902;41.720;44.796;2024-01-11T06:08:39;2.90;;;0.80;;
77733;SDS011;66902;41.720;44.796;2024-01-11T06:11:13;6.00;;;1.30;;
77733;SDS011;66902;41.720;44.796;2024-01-11T06:13:48;2.00;;;1.00;;
77733;SDS011;66902;41.720;44.796;2024-01-11T06:16:22;1.30;;;0.70;;
77733;SDS011;66902;41.720;44.796;2024-01-11T06:18:56;1.80;;;1.20;;
77733;SDS011;66902;41.720;44.796;2024-01-11T06:21:29;1.90;;;0.70;;
77733;SDS011;66902;41.720;44.796;2024-01-11T06:24:03;1.80;;;1.10;;
77733;SDS011;66902;41.720;44.796;2024-01-11T06:26:38;2.10;;;0.90;;
77733;SDS011;66902;41.720;44.796;2024-01-11T06:29:11;3.10;;;1.30;;
77733;SDS011;66902;41.720;44.796;2024-01-11T06:31:45;3.20;;;1.80;;
77733;SDS011;66902;41.720;44.796;2024-01-11T06:34:19;3.70;;;2.00;;
77733;SDS011;66902;41.720;44.796;2024-01-11T06:36:53;7.00;;;2.60;;
77733;SDS011;66902;41.720;44.796;2024-01-11T06:39:26;4.60;;;2.70;;
77733;SDS011;66902;41.720;44.796;2024-01-11T06:42:00;2.90;;;1.60;;
77733;SDS011;66902;41.720;44.796;2024-01-11T06:44:35;6.80;;;2.30;;
77733;SDS011;66902;41.720;44.796;2024-01-11T06:47:09;3.80;;;1.60;;
77733;SDS011;66902;41.720;44.796;2024-01-11T06:49:44;4.60;;;2.70;;
77733;SDS011;66902;41.720;44.796;2024-01-11T06:52:17;5.70;;;1.50;;
77733;SDS011;66902;41.720;44.796;2024-01-11T06:54:51;11.20;;;1.40;;
77733;SDS011;66902;41.720;44.796;2024-01-11T06:57:24;3.90;;;1.10;;
77733;SDS011;66902;41.720;44.796;2024-01-11T06:59:59;7.70;;;2.90;;
77733;SDS011;66902;41.720;44.796;2024-01-11T07:02:34;8.30;;;2.80;;
77733;SDS011;66902;41.720;44.796;2024-01-11T07:05:10;5.20;;;1.90;;
77733;SDS011;66902;41.720;44.796;2024-01-11T07:07:44;4.40;;;1.40;;
77733;SDS011;66902;41.720;44.796;2024-01-11T07:10:18;8.50;;;1.50;;
77733;SDS011;66902;41.720;44.796;2024-01-11T07:12:52;3.40;;;1.40;;
77733;SDS011;66902;41.720;44.796;2024-01-11T07:15:25;2.40;;;1.30;;
77733;SDS011;66902;41.720;44.796;2024-01-11T07:17:59;5.60;;;1.40;;
77733;SDS011;66902;41.720;44.796;2024-01-11T07:20:32;10.30;;;1.10;;
77733;SDS011;66902;41.720;44.796;2024-01-11T07:23:06;3.00;;;0.60;;
77733;SDS011;66902;41.720;44.796;2024-01-11T07:25:39;3.00;;;0.80;;
77733;SDS011;66902;41.720;44.796;2024-01-11T07:28:13;0.90;;;0.40;;
77733;SDS011;66902;41.720;44.796;2024-01-11T07:30:47;2.40;;;1.20;;
77733;SDS011;66902;41.720;44.796;2024-01-11T07:33:21;1.30;;;0.80;;
77733;SDS011;66902;41.720;44.796;2024-01-11T07:35:55;6.80;;;1.10;;
77733;SDS011;66902;41.720;44.796;2024-01-11T07:38:29;2.70;;;1.10;;
77733;SDS011;66902;41.720;44.796;2024-01-11T07:41:03;4.40;;;1.00;;
77733;SDS011;66902;41.720;44.796;2024-01-11T07:43:36;4.80;;;0.80;;
77733;SDS011;66902;41.720;44.796;2024-01-11T07:46:22;6.00;;;1.70;;
77733;SDS011;66902;41.720;44.796;2024-01-11T07:49:07;2.60;;;1.40;;
77733;SDS011;66902;41.720;44.796;2024-01-11T07:51:41;2.90;;;1.50;;
77733;SDS011;66902;41.720;44.796;2024-01-11T07:54:15;5.50;;;1.60;;
77733;SDS011;66902;41.720;44.796;2024-01-11T07:56:51;6.00;;;1.80;;
77733;SDS011;66902;41.720;44.796;2024-01-11T07:59:25;6.50;;;1.10;;
77733;SDS011;66902;41.720;44.796;2024-01-11T08:01:59;3.20;;;1.30;;
77733;SDS011;66902;41.720;44.796;2024-01-11T08:04:33;3.60;;;1.10;;
77733;SDS011;66902;41.720;44.796;2024-01-11T08:07:08;8.50;;;1.90;;
77733;SDS011;66902;41.720;44.796;2024-01-11T08:09:42;2.10;;;1.00;;
77733;SDS011;66902;41.720;44.796;2024-01-11T08:12:16;3.10;;;1.20;;
77733;SDS011;66902;41.720;44.796;2024-01-11T08:14:49;6.60;;;1.60;;
77733;SDS011;66902;41.720;44.796;2024-01-11T08:17:24;23.10;;;16.10;;
77733;SDS011;66902;41.720;44.796;2024-01-11T08:19:58;30.60;;;19.90;;
77733;SDS011;66902;41.720;44.796;2024-01-11T08:22:32;23.40;;;18.50;;
77733;SDS011;66902;41.720;44.796;2024-01-11T08:25:07;25.00;;;20.00;;
77733;SDS011;66902;41.720;44.796;2024-01-11T08:27:41;24.30;;;18.00;;
77733;SDS011;66902;41.720;44.796;2024-01-11T08:30:15;25.30;;;19.80;;
77733;SDS011;66902;41.720;44.796;2024-01-11T08:32:50;27.60;;;20.30;;
77733;SDS011;66902;41.720;44.796;2024-01-11T08:35:25;27.90;;;20.60;;
77733;SDS011;66902;41.720;44.796;2024-01-11T08:37:59;27.70;;;22.60;;
77733;SDS011;66902;41.720;44.796;2024-01-11T08:40:33;37.70;;;25.70;;
77733;SDS011;66902;41.720;44.796;2024-01-11T08:43:07;38.60;;;29.50;;
77733;SDS011;66902;41.720;44.796;2024-01-11T08:48:37;37.30;;;28.80;;
77733;SDS011;66902;41.720;44.796;2024-01-11T08:51:11;34.90;;;28.00;;
77733;SDS011;66902;41.720;44.796;2024-01-11T08:53:45;37.90;;;26.40;;
77733;SDS011;66902;41.720;44.796;2024-01-11T08:56:18;45.10;;;28.80;;
77733;SDS011;66902;41.720;44.796;2024-01-11T08:58:53;42.40;;;26.10;;
77733;SDS011;66902;41.720;44.796;2024-01-11T09:01:28;33.40;;;25.20;;
77733;SDS011;66902;41.720;44.796;2024-01-11T09:04:02;31.90;;;24.40;;
77733;SDS011;66902;41.720;44.796;2024-01-11T09:06:42;32.70;;;23.00;;
77733;SDS011;66902;41.720;44.796;2024-01-11T09:09:17;32.60;;;20.90;;
77733;SDS011;66902;41.720;44.796;2024-01-11T09:11:52;28.10;;;21.50;;
77733;SDS011;66902;41.720;44.796;2024-01-11T09:14:26;34.50;;;27.60;;
77733;SDS011;66902;41.720;44.796;2024-01-11T09:16:59;40.30;;;31.20;;
77733;SDS011;66902;41.720;44.796;2024-01-11T09:19:36;33.10;;;21.00;;
77733;SDS011;66902;41.720;44.796;2024-01-11T09:22:10;31.80;;;24.50;;
77733;SDS011;66902;41.720;44.796;2024-01-11T09:24:44;30.80;;;23.90;;
77733;SDS011;66902;41.720;44.796;2024-01-11T09:27:18;29.70;;;23.50;;
77733;SDS011;66902;41.720;44.796;2024-01-11T09:29:51;35.40;;;24.50;;
77733;SDS011;66902;41.720;44.796;2024-01-11T09:32:26;35.90;;;26.60;;
77733;SDS011;66902;41.720;44.796;2024-01-11T09:35:01;33.20;;;26.00;;
77733;SDS011;66902;41.720;44.796;2024-01-11T09:37:36;30.10;;;23.10;;
77733;SDS011;66902;41.720;44.796;2024-01-11T09:40:10;26.60;;;22.70;;
77733;SDS011;66902;41.720;44.796;2024-01-11T09:42:43;37.90;;;26.60;;
77733;SDS011;66902;41.720;44.796;2024-01-11T09:45:26;37.30;;;25.30;;
77733;SDS011;66902;41.720;44.796;2024-01-11T09:48:00;42.80;;;26.60;;
77733;SDS011;66902;41.720;44.796;2024-01-11T09:50:36;31.90;;;23.50;;
77733;SDS011;66902;41.720;44.796;2024-01-11T09:53:10;37.30;;;24.90;;
77733;SDS011;66902;41.720;44.796;2024-01-11T09:55:44;30.70;;;23.70;;
77733;SDS011;66902;41.720;44.796;2024-01-11T09:58:17;31.50;;;22.20;;
77733;SDS011;66902;41.720;44.796;2024-01-11T10:00:51;30.60;;;21.70;;
77733;SDS011;66902;41.720;44.796;2024-01-11T10:03:29;22.20;;;19.80;;
77733;SDS011;66902;41.720;44.796;2024-01-11T10:06:04;34.90;;;21.20;;
77733;SDS011;66902;41.720;44.796;2024-01-11T10:08:39;24.00;;;20.10;;
77733;SDS011;66902;41.720;44.796;2024-01-11T10:11:13;31.40;;;19.60;;
77733;SDS011;66902;41.720;44.796;2024-01-11T10:13:46;28.60;;;20.50;;
77733;SDS011;66902;41.720;44.796;2024-01-11T10:16:20;35.20;;;24.60;;
77733;SDS011;66902;41.720;44.796;2024-01-11T10:18:55;25.80;;;20.10;;
77733;SDS011;66902;41.720;44.796;2024-01-11T10:21:29;23.00;;;18.00;;
77733;SDS011;66902;41.720;44.796;2024-01-11T10:24:04;21.20;;;15.60;;
77733;SDS011;66902;41.720;44.796;2024-01-11T10:26:38;20.10;;;18.00;;
77733;SDS011;66902;41.720;44.796;2024-01-11T10:29:16;18.20;;;15.90;;
77733;SDS011;66902;41.720;44.796;2024-01-11T10:31:50;22.80;;;16.50;;
77733;SDS011;66902;41.720;44.796;2024-01-11T10:34:24;21.40;;;19.20;;
77733;SDS011;66902;41.720;44.796;2024-01-11T10:36:57;31.80;;;24.60;;
77733;SDS011;66902;41.720;44.796;2024-01-11T10:39:32;28.00;;;25.10;;
77733;SDS011;66902;41.720;44.796;2024-01-11T10:42:07;32.00;;;25.10;;
77733;SDS011;66902;41.720;44.796;2024-01-11T10:44:42;30.60;;;20.90;;
77733;SDS011;66902;41.720;44.796;2024-01-11T10:47:19;29.90;;;20.00;;
77733;SDS011;66902;41.720;44.796;2024-01-11T10:49:53;28.00;;;21.50;;
77733;SDS011;66902;41.720;44.796;2024-01-11T10:52:32;37.20;;;21.70;;
77733;SDS011;66902;41.720;44.796;2024-01-11T10:55:09;33.50;;;23.10;;
77733;SDS011;66902;41.720;44.796;2024-01-11T10:57:50;36.60;;;25.60;;
77733;SDS011;66902;41.720;44.796;2024-01-11T11:00:24;37.90;;;26.80;;
77733;SDS011;66902;41.720;44.796;2024-01-11T11:02:58;39.20;;;27.00;;
77733;SDS011;66902;41.720;44.796;2024-01-11T11:05:33;40.80;;;26.90;;
77733;SDS011;66902;41.720;44.796;2024-01-11T11:08:07;38.70;;;27.10;;
77733;SDS011;66902;41.720;44.796;2024-01-11T11:10:43;40.30;;;27.30;;
77733;SDS011;66902;41.720;44.796;2024-01-11T11:13:17;37.90;;;27.60;;
77733;SDS011;66902;41.720;44.796;2024-01-11T11:15:52;43.80;;;25.40;;
77733;SDS011;66902;41.720;44.796;2024-01-11T11:18:30;34.10;;;23.90;;
77733;SDS011;66902;41.720;44.796;2024-01-11T11:21:08;37.90;;;30.50;;
77733;SDS011;66902;41.720;44.796;2024-01-11T11:23:42;36.40;;;24.10;;
77733;SDS011;66902;41.720;44.796;2024-01-11T11:26:16;27.10;;;22.00;;
77733;SDS011;66902;41.720;44.796;2024-01-11T11:28:50;33.40;;;23.00;;
77733;SDS011;66902;41.720;44.796;2024-01-11T11:31:36;24.90;;;20.50;;
77733;SDS011;66902;41.720;44.796;2024-01-11T11:34:14;22.30;;;19.20;;
77733;SDS011;66902;41.720;44.796;2024-01-11T11:36:47;23.00;;;17.80;;
77733;SDS011;66902;41.720;44.796;2024-01-11T11:39:25;24.30;;;17.60;;
77733;SDS011;66902;41.720;44.796;2024-01-11T11:41:59;20.70;;;16.70;;
77733;SDS011;66902;41.720;44.796;2024-01-11T11:44:32;21.50;;;15.80;;
77733;SDS011;66902;41.720;44.796;2024-01-11T11:47:22;18.40;;;15.10;;
77733;SDS011;66902;41.720;44.796;2024-01-11T11:52:54;15.40;;;11.80;;
77733;SDS011;66902;41.720;44.796;2024-01-11T11:55:29;14.20;;;12.60;;
77733;SDS011;66902;41.720;44.796;2024-01-11T11:58:02;17.30;;;13.90;;
77733;SDS011;66902;41.720;44.796;2024-01-11T12:00:38;23.10;;;16.40;;
77733;SDS011;66902;41.720;44.796;2024-01-11T12:03:14;15.30;;;13.10;;
77733;SDS011;66902;41.720;44.796;2024-01-11T12:05:47;24.60;;;14.20;;
77733;SDS011;66902;41.720;44.796;2024-01-11T12:08:22;18.60;;;13.40;;
77733;SDS011;66902;41.720;44.796;2024-01-11T12:10:55;16.70;;;13.20;;
77733;SDS011;66902;41.720;44.796;2024-01-11T12:13:29;17.60;;;14.70;;
77733;SDS011;66902;41.720;44.796;2024-01-11T12:16:06;17.90;;;12.70;;
77733;SDS011;66902;41.720;44.796;2024-01-11T12:18:41;15.80;;;13.70;;
77733;SDS011;66902;41.720;44.796;2024-01-11T12:21:15;18.20;;;15.00;;
77733;SDS011;66902;41.720;44.796;2024-01-11T12:23:53;16.50;;;12.50;;
77733;SDS011;66902;41.720;44.796;2024-01-11T12:26:27;16.20;;;11.60;;
77733;SDS011;66902;41.720;44.796;2024-01-11T12:29:00;11.30;;;10.10;;
77733;SDS011;66902;41.720;44.796;2024-01-11T12:31:36;17.90;;;11.00;;
77733;SDS011;66902;41.720;44.796;2024-01-11T12:34:12;14.40;;;11.40;;
77733;SDS011;66902;41.720;44.796;2024-01-11T12:36:47;12.50;;;9.60;;
77733;SDS011;66902;41.720;44.796;2024-01-11T12:39:22;12.60;;;9.40;;
77733;SDS011;66902;41.720;44.796;2024-01-11T12:41:58;12.80;;;10.00;;
77733;SDS011;66902;41.720;44.796;2024-01-11T12:44:32;13.40;;;9.80;;
77733;SDS011;66902;41.720;44.796;2024-01-11T12:47:08;15.20;;;10.20;;
77733;SDS011;66902;41.720;44.796;2024-01-11T12:49:44;16.50;;;12.30;;
77733;SDS011;66902;41.720;44.796;2024-01-11T12:52:18;15.60;;;12.90;;
77733;SDS011;66902;41.720;44.796;2024-01-11T12:54:52;17.70;;;12.60;;
77733;SDS011;66902;41.720;44.796;2024-01-11T12:57:26;17.80;;;10.80;;
77733;SDS011;66902;41.720;44.796;2024-01-11T13:00:10;18.30;;;11.00;;
77733;SDS011;66902;41.720;44.796;2024-01-11T13:02:46;14.30;;;10.00;;
77733;SDS011;66902;41.720;44.796;2024-01-11T13:05:23;12.80;;;10.80;;
77733;SDS011;66902;41.720;44.796;2024-01-11T13:07:57;13.50;;;11.20;;
77733;SDS011;66902;41.720;44.796;2024-01-11T13:10:33;15.40;;;10.90;;
77733;SDS011;66902;41.720;44.796;2024-01-11T13:13:07;22.60;;;14.30;;
77733;SDS011;66902;41.720;44.796;2024-01-11T13:15:42;14.10;;;12.20;;
77733;SDS011;66902;41.720;44.796;2024-01-11T13:18:16;13.20;;;10.70;;
77733;SDS011;66902;41.720;44.796;2024-01-11T13:20:50;12.80;;;9.60;;
77733;SDS011;66902;41.720;44.796;2024-01-11T13:23:24;15.50;;;10.00;;
77733;SDS011;66902;41.720;44.796;2024-01-11T13:25:58;10.90;;;9.80;;
77733;SDS011;66902;41.720;44.796;2024-01-11T13:28:32;11.40;;;9.60;;
77733;SDS011;66902;41.720;44.796;2024-01-11T13:31:06;11.90;;;10.40;;
77733;SDS011;66902;41.720;44.796;2024-01-11T13:33:42;18.90;;;13.90;;
77733;SDS011;66902;41.720;44.796;2024-01-11T13:36:18;17.60;;;13.90;;
77733;SDS011;66902;41.720;44.796;2024-01-11T13:38:55;16.80;;;11.10;;
77733;SDS011;66902;41.720;44.796;2024-01-11T13:41:30;13.80;;;10.10;;
77733;SDS011;66902;41.720;44.796;2024-01-11T13:44:04;13.30;;;10.50;;
77733;SDS011;66902;41.720;44.796;2024-01-11T13:46:42;13.80;;;10.80;;
77733;SDS011;66902;41.720;44.796;2024-01-11T13:49:15;12.20;;;10.50;;
77733;SDS011;66902;41.720;44.796;2024-01-11T13:51:53;18.30;;;11.20;;
77733;SDS011;66902;41.720;44.796;2024-01-11T13:54:30;12.30;;;10.50;;
77733;SDS011;66902;41.720;44.796;2024-01-11T13:57:07;11.40;;;9.90;;
77733;SDS011;66902;41.720;44.796;2024-01-11T13:59:43;12.20;;;11.00;;
77733;SDS011;66902;41.720;44.796;2024-01-11T14:02:17;14.00;;;10.60;;
77733;SDS011;66902;41.720;44.796;2024-01-11T14:04:51;15.30;;;11.00;;
77733;SDS011;66902;41.720;44.796;2024-01-11T14:07:25;14.50;;;11.00;;
77733;SDS011;66902;41.720;44.796;2024-01-11T14:10:00;13.50;;;10.00;;
77733;SDS011;66902;41.720;44.796;2024-01-11T14:12:37;11.90;;;10.50;;
77733;SDS011;66902;41.720;44.796;2024-01-11T14:15:10;15.00;;;12.70;;
77733;SDS011;66902;41.720;44.796;2024-01-11T14:17:46;13.10;;;10.00;;
77733;SDS011;66902;41.720;44.796;2024-01-11T14:20:21;11.80;;;9.30;;
77733;SDS011;66902;41.720;44.796;2024-01-11T14:22:56;9.90;;;8.90;;
77733;SDS011;66902;41.720;44.796;2024-01-11T14:25:30;11.50;;;9.00;;
77733;SDS011;66902;41.720;44.796;2024-01-11T14:28:06;12.00;;;10.10;;
77733;SDS011;66902;41.720;44.796;2024-01-11T14:30:40;12.00;;;10.40;;
77733;SDS011;66902;41.720;44.796;2024-01-11T14:33:14;11.90;;;10.70;;
77733;SDS011;66902;41.720;44.796;2024-01-11T14:35:50;14.70;;;11.50;;
77733;SDS011;66902;41.720;44.796;2024-01-11T14:38:24;11.80;;;9.70;;
77733;SDS011;66902;41.720;44.796;2024-01-11T14:40:58;11.90;;;9.30;;
77733;SDS011;66902;41.720;44.796;2024-01-11T14:43:33;12.30;;;9.10;;
77733;SDS011;66902;41.720;44.796;2024-01-11T14:46:06;12.90;;;10.50;;
77733;SDS011;66902;41.720;44.796;2024-01-11T14:48:41;13.70;;;11.50;;
77733;SDS011;66902;41.720;44.796;2024-01-11T14:51:14;14.80;;;12.30;;
77733;SDS011;66902;41.720;44.796;2024-01-11T14:53:48;12.90;;;10.70;;
77733;SDS011;66902;41.720;44.796;2024-01-11T14:56:22;13.80;;;11.40;;
77733;SDS011;66902;41.720;44.796;2024-01-11T14:59:01;16.30;;;12.70;;
77733;SDS011;66902;41.720;44.796;2024-01-11T15:01:35;14.20;;;11.90;;
77733;SDS011;66902;41.720;44.796;2024-01-11T15:04:09;16.80;;;12.70;;
77733;SDS011;66902;41.720;44.796;2024-01-11T15:06:43;21.00;;;14.40;;
77733;SDS011;66902;41.720;44.796;2024-01-11T15:09:16;17.30;;;14.70;;
77733;SDS011;66902;41.720;44.796;2024-01-11T15:11:50;20.20;;;14.50;;